createdAt,value
2022-09-18T06:15:05.251Z,1003.95
2022-09-18T06:16:05.230Z,1003.96
2022-09-18T06:17:05.121Z,1003.93
2022-09-18T06:18:05.133Z,1004.02
2022-09-18T06:19:05.129Z,1003.99
2022-09-18T06:20:05.131Z,1003.96
2022-09-18T06:21:05.138Z,1003.94
2022-09-18T06:22:05.144Z,1003.94
2022-09-18T06:23:05.155Z,1003.93
2022-09-18T06:24:05.157Z,1003.87
2022-09-18T06:25:05.159Z,1003.93
2022-09-18T06:26:05.165Z,1003.91
2022-09-18T06:27:05.171Z,1003.91
2022-09-18T06:28:05.169Z,1003.92
2022-09-18T06:29:05.183Z,1003.93
2022-09-18T06:30:05.180Z,1003.94
2022-09-18T06:31:05.395Z,1003.93
2022-09-18T06:32:05.190Z,1003.93
2022-09-18T06:33:05.204Z,1003.95
2022-09-18T06:34:05.200Z,1003.89
2022-09-18T06:35:05.212Z,1003.91
2022-09-18T06:36:05.210Z,1003.90
2022-09-18T06:37:05.215Z,1003.87
2022-09-18T06:38:05.226Z,1003.91
2022-09-18T06:39:05.224Z,1003.97
2022-09-18T06:40:05.273Z,1003.93
2022-09-18T06:41:05.236Z,1003.95
2022-09-18T06:42:05.249Z,1003.90
2022-09-18T06:43:05.252Z,1003.97
2022-09-18T06:44:05.257Z,1003.96
2022-09-18T06:45:05.257Z,1003.96
2022-09-18T06:46:05.270Z,1003.98
2022-09-18T06:47:05.419Z,1003.98
2022-09-18T06:49:02.851Z,1003.97
2022-09-18T06:50:02.866Z,1003.99
2022-09-18T06:51:02.865Z,1003.99
2022-09-18T06:52:02.871Z,1004.01
2022-09-18T06:53:02.865Z,1003.94
2022-09-18T06:54:03.125Z,1003.99
2022-09-18T06:55:02.880Z,1004.00
2022-09-18T06:56:02.891Z,1004.00
2022-09-18T06:57:02.887Z,1003.92
2022-09-18T06:58:02.894Z,1003.96
2022-09-18T06:59:02.898Z,1003.97
2022-09-18T07:00:04.959Z,1003.94
2022-09-18T07:01:02.952Z,1003.96
2022-09-18T07:02:03.006Z,1003.97
2022-09-18T08:46:03.314Z,1003.46
2022-09-18T08:47:03.254Z,1003.49
2022-09-18T08:48:03.209Z,1003.35
2022-09-18T08:49:03.227Z,1003.40
2022-09-18T08:50:03.248Z,1003.36
2022-09-18T08:51:03.254Z,1003.38
2022-09-18T08:52:03.268Z,1003.45
2022-09-18T08:53:03.278Z,1003.40
2022-09-18T08:54:03.327Z,1003.36
2022-09-18T08:55:03.309Z,1003.24
2022-09-18T08:56:03.316Z,1003.33
2022-09-18T08:57:03.326Z,1003.31
2022-09-18T08:58:03.336Z,1003.24
2022-09-18T08:59:03.350Z,1003.28
2022-09-18T09:00:03.362Z,1003.30
2022-09-18T09:01:03.479Z,1003.28
2022-09-18T09:02:03.607Z,1003.26
2022-09-18T09:03:03.408Z,1003.21
2022-09-18T09:04:03.417Z,1003.25
2022-09-18T09:05:03.437Z,1003.19
2022-09-18T09:06:03.451Z,1003.21
2022-09-18T09:07:03.458Z,1003.23
2022-09-18T09:08:03.471Z,1003.19
2022-09-18T09:09:03.526Z,1003.17
2022-09-18T09:10:03.505Z,1003.19
2022-09-18T09:11:03.514Z,1003.19
2022-09-18T09:12:03.537Z,1003.22
2022-09-18T09:13:03.549Z,1003.15
2022-09-18T09:17:09.640Z,1003.04
2022-09-18T09:18:09.538Z,1003.12
2022-09-18T09:19:09.552Z,1003.12
2022-09-18T09:20:09.569Z,1003.01
2022-09-18T09:21:11.789Z,1003.10
2022-09-18T09:22:09.642Z,1003.00
2022-09-18T09:23:09.606Z,1002.99
2022-09-18T09:24:09.634Z,1003.01
2022-09-18T09:25:09.637Z,1002.97
2022-09-18T09:26:09.660Z,1003.08
2022-09-18T09:27:09.669Z,1003.11
2022-09-18T09:28:12.289Z,1003.03
2022-09-18T09:29:09.707Z,1003.02
2022-09-18T09:30:09.717Z,1002.91
2022-09-18T09:31:09.833Z,1002.99
2022-09-18T09:32:09.747Z,1003.04
2022-09-18T09:33:09.882Z,1002.97
2022-09-18T09:34:09.776Z,1002.93
2022-09-18T09:35:09.793Z,1002.93
2022-09-18T09:36:09.814Z,1002.85
2022-09-18T09:37:09.830Z,1002.76
2022-09-18T09:38:09.839Z,1002.65
2022-09-18T09:39:09.857Z,1002.65
2022-09-18T09:40:09.969Z,1002.73
2022-09-18T09:41:09.895Z,1002.62
2022-09-18T09:42:09.902Z,1002.67
2022-09-18T09:43:09.931Z,1002.68
2022-09-18T09:44:09.943Z,1002.62
2022-09-18T09:45:09.956Z,1002.65
2022-09-18T09:46:10.036Z,1002.72
2022-09-18T09:47:10.026Z,1002.71
2022-09-18T09:48:09.994Z,1002.61
2022-09-18T09:49:10.130Z,1002.64
2022-09-18T09:50:10.039Z,1002.60
2022-09-18T09:51:10.044Z,1002.63
2022-09-18T09:52:10.058Z,1002.62
2022-09-18T09:53:10.070Z,1002.67
2022-09-18T10:01:45.981Z,1002.70
2022-09-18T10:02:45.933Z,1002.69
2022-09-18T10:03:45.941Z,1002.71
2022-09-18T10:04:46.068Z,1002.71
2022-09-18T10:05:49.276Z,1002.66
2022-09-18T10:06:45.981Z,1002.77
2022-09-18T10:07:46.004Z,1002.72
2022-09-18T10:08:46.010Z,1002.70
2022-09-18T10:09:46.023Z,1002.71
2022-09-18T10:10:46.032Z,1002.64
2022-09-18T10:11:46.041Z,1002.67
2022-09-18T10:12:46.055Z,1002.59
2022-09-18T10:13:46.067Z,1002.69
2022-09-18T10:14:46.080Z,1002.62
2022-09-18T10:15:46.102Z,1002.63
2022-09-18T10:16:46.112Z,1002.62
2022-09-18T10:17:46.120Z,1002.76
2022-09-18T10:18:46.136Z,1002.55
2022-09-18T10:19:46.145Z,1002.64
2022-09-18T10:20:46.283Z,1002.73
2022-09-18T10:21:46.177Z,1002.75
2022-09-18T10:22:46.192Z,1002.88
2022-09-18T10:23:46.196Z,1002.78
2022-09-18T10:24:46.207Z,1002.85
2022-09-18T10:25:46.221Z,1002.85
2022-09-18T10:37:48.804Z,1002.74
2022-09-18T10:38:48.693Z,1002.65
2022-09-18T10:39:48.719Z,1002.67
2022-09-18T10:40:48.718Z,1002.57
2022-09-18T10:41:48.734Z,1002.58
2022-09-18T10:43:41.319Z,1002.62
2022-09-18T10:50:34.604Z,1002.53
2022-09-18T10:51:33.839Z,1002.52
2022-09-18T10:52:33.854Z,1002.48
2022-09-18T10:53:33.997Z,1002.57
2022-09-18T10:54:36.500Z,1002.50
2022-09-18T10:55:33.899Z,1002.51
2022-09-18T10:56:33.912Z,1002.57
2022-09-18T10:57:33.921Z,1002.52
2022-09-18T10:58:33.936Z,1002.43
2022-09-18T10:59:33.948Z,1002.42
2022-09-18T11:00:34.000Z,1002.38
2022-09-18T11:01:34.014Z,1002.42
2022-09-18T11:02:34.056Z,1002.40
2022-09-18T11:03:34.009Z,1002.44
2022-09-18T11:06:34.199Z,1002.34
2022-09-18T11:11:43.525Z,1002.25
2022-09-18T11:12:43.421Z,1002.26
2022-09-18T11:13:43.448Z,1002.17
2022-09-18T11:14:43.453Z,1002.22
2022-09-18T11:15:43.471Z,1002.22
2022-09-18T11:16:43.540Z,1002.31
2022-09-18T11:19:53.697Z,1002.18
2022-09-18T11:22:01.314Z,1002.23
2022-09-18T11:23:01.337Z,1002.21
2022-09-18T11:24:01.471Z,1002.27
2022-09-18T11:25:01.362Z,1002.18
2022-09-18T11:26:01.377Z,1002.14
2022-09-18T11:27:01.726Z,1002.17
2022-09-18T11:28:01.413Z,1002.20
2022-09-18T11:29:01.421Z,1002.17
2022-09-18T11:40:58.302Z,1002.07
2022-09-18T11:41:58.317Z,1002.04
2022-09-18T11:42:58.478Z,1002.01
2022-09-18T11:43:58.346Z,1002.00
2022-09-18T11:44:58.367Z,1002.09
2022-09-18T11:45:58.394Z,1001.99
2022-09-18T11:46:58.482Z,1002.04
2022-09-18T11:47:58.430Z,1002.06
2022-09-18T11:49:02.488Z,1002.04
2022-09-18T11:49:58.460Z,1002.03
2022-09-18T11:50:58.488Z,1001.99
2022-09-18T11:51:58.506Z,1001.97
2022-09-18T11:52:58.524Z,1001.93
2022-09-18T11:53:58.539Z,1001.91
2022-09-18T11:54:58.560Z,1001.90
2022-09-18T11:55:58.575Z,1001.91
2022-09-18T11:56:58.587Z,1001.91
2022-09-18T11:57:58.601Z,1001.92
2022-09-18T11:58:58.740Z,1001.94
2022-09-18T11:59:58.642Z,1001.90
2022-09-18T12:01:02.964Z,1001.89
2022-09-18T12:01:58.705Z,1001.83
2022-09-18T12:10:22.672Z,1001.75
2022-09-18T12:11:22.686Z,1001.74
2022-09-18T12:12:22.706Z,1001.70
2022-09-18T12:13:22.713Z,1001.68
2022-09-18T12:14:22.849Z,1001.66
2022-09-18T12:15:22.739Z,1001.70
2022-09-18T12:16:22.809Z,1001.77
2022-09-18T12:17:22.763Z,1001.69
2022-09-18T12:18:22.787Z,1001.69
2022-09-18T12:19:22.798Z,1001.66
2022-09-18T12:20:22.805Z,1001.68
2022-09-18T12:21:22.817Z,1001.65
2022-09-18T12:22:22.838Z,1001.69
2022-09-18T12:23:22.843Z,1001.62
2022-09-18T12:24:22.865Z,1001.62
2022-09-18T12:25:22.874Z,1001.55
2022-09-18T12:26:22.890Z,1001.54
2022-09-18T12:27:27.074Z,1001.58
2022-09-18T12:30:00.691Z,1001.63
2022-09-18T12:48:03.136Z,1001.72
2022-09-18T12:54:59.242Z,1001.96
2022-09-18T12:56:01.866Z,1001.96
2022-09-18T13:03:31.448Z,1002.56
2022-09-18T13:04:28.654Z,1002.61
2022-09-18T13:05:28.661Z,1002.67
2022-09-18T13:06:28.670Z,1002.68
2022-09-18T13:07:28.679Z,1002.62
2022-09-18T13:08:28.695Z,1002.75
2022-09-18T13:09:28.699Z,1002.67
2022-09-18T13:10:28.715Z,1002.77
2022-09-18T13:11:28.727Z,1002.83
2022-09-18T13:12:28.743Z,1002.87
2022-09-18T13:13:28.747Z,1002.86
2022-09-18T13:14:28.747Z,1002.87
2022-09-18T13:15:28.757Z,1002.91
2022-09-18T13:16:29.543Z,1002.90
2022-09-18T13:17:29.518Z,1002.90
2022-09-18T13:18:29.522Z,1002.90
2022-09-18T13:19:29.657Z,1002.88
2022-09-18T13:20:29.543Z,1002.87
2022-09-18T13:21:29.543Z,1002.95
2022-09-18T13:22:29.551Z,1002.83
2022-09-18T13:23:29.568Z,1002.83
2022-09-18T13:24:29.568Z,1002.82
2022-09-18T13:25:29.579Z,1002.83
2022-09-18T13:26:29.586Z,1002.86
2022-09-18T14:01:35.265Z,1002.33
2022-09-18T14:02:35.102Z,1002.27
2022-09-18T14:03:35.115Z,1002.29
